createdAt,value
2022-07-26T00:01:45.464Z,101162.28
2022-07-26T00:04:42.954Z,101157.66
2022-07-26T00:07:40.295Z,101159.25
2022-07-26T00:10:42.850Z,101164.22
2022-07-26T00:13:40.218Z,101158.44
2022-07-26T00:16:38.948Z,101162.16
2022-07-26T00:19:36.335Z,101166.00
2022-07-26T00:22:35.886Z,101166.03
2022-07-26T00:25:33.510Z,101161.13
2022-07-26T00:28:31.149Z,101162.69
2022-07-26T00:31:28.417Z,101168.84
2022-07-26T00:34:26.101Z,101168.50
2022-07-26T00:37:23.257Z,101163.59
2022-07-26T00:40:20.291Z,101166.91
2022-07-26T00:43:18.075Z,101160.38
2022-07-26T00:46:15.006Z,101164.50
2022-07-26T00:49:12.856Z,101163.78
2022-07-26T00:52:10.690Z,101163.00
2022-07-26T00:55:08.379Z,101166.72
2022-07-26T00:58:06.479Z,101162.63
2022-07-26T01:01:04.306Z,101161.75
2022-07-26T01:04:00.757Z,101163.78
2022-07-26T01:06:58.248Z,101158.09
2022-07-26T01:09:55.174Z,101155.59
2022-07-26T01:12:52.031Z,101151.47
2022-07-26T01:15:49.204Z,101150.19
2022-07-26T01:18:46.115Z,101150.63
2022-07-26T01:21:43.314Z,101153.06
2022-07-26T01:24:40.356Z,101148.94
2022-07-26T01:27:41.097Z,101145.75
2022-07-26T01:30:38.476Z,101149.00
2022-07-26T01:33:35.254Z,101144.03
2022-07-26T01:36:32.105Z,101134.63
2022-07-26T01:39:29.226Z,101135.88
2022-07-26T01:45:23.126Z,101141.56
2022-07-26T01:48:20.043Z,101142.84
2022-07-26T01:51:17.092Z,101146.47
2022-07-26T01:54:15.384Z,101141.22
2022-07-26T01:57:22.304Z,101145.78
2022-07-26T02:00:19.368Z,101148.69
2022-07-26T02:03:16.247Z,101158.06
2022-07-26T02:06:13.119Z,101155.19
2022-07-26T02:09:13.230Z,101159.78
2022-07-26T02:12:10.246Z,101157.22
2022-07-26T02:15:08.278Z,101151.44
2022-07-26T02:18:05.263Z,101150.59
2022-07-26T02:21:02.066Z,101146.63
2022-07-26T02:23:59.035Z,101145.91
2022-07-26T02:26:59.907Z,101150.88
2022-07-26T02:29:57.175Z,101154.50
2022-07-26T02:32:54.205Z,101156.53
2022-07-26T02:35:51.507Z,101154.81
2022-07-26T02:38:49.218Z,101148.34
2022-07-26T02:41:46.276Z,101155.78
2022-07-26T02:44:43.423Z,101152.91
2022-07-26T02:47:50.155Z,101163.13
2022-07-26T02:50:47.087Z,101169.69
2022-07-26T02:53:44.340Z,101163.09
2022-07-26T02:56:40.946Z,101155.31
2022-07-26T02:59:38.406Z,101157.75
2022-07-26T03:02:35.356Z,101166.81
2022-07-26T03:05:32.268Z,101172.19
2022-07-26T03:08:29.537Z,101168.09
2022-07-26T03:11:26.117Z,101175.47
2022-07-26T03:14:23.330Z,101178.75
2022-07-26T03:17:20.621Z,101177.09
2022-07-26T03:20:18.447Z,101174.25
2022-07-26T03:23:15.489Z,101173.44
2022-07-26T03:26:12.479Z,101177.09
2022-07-26T03:29:09.441Z,101169.63
2022-07-26T03:32:06.626Z,101177.84
2022-07-26T03:35:04.702Z,101176.22
2022-07-26T03:38:02.759Z,101166.34
2022-07-26T03:41:00.297Z,101165.53
2022-07-26T03:43:58.112Z,101166.72
2022-07-26T03:46:55.625Z,101176.47
2022-07-26T03:49:52.906Z,101173.63
2022-07-26T03:52:50.343Z,101177.34
2022-07-26T03:56:10.174Z,101170.44
2022-07-26T03:59:08.513Z,101185.59
2022-07-26T04:02:05.389Z,101177.38
2022-07-26T04:05:02.191Z,101174.88
2022-07-26T04:07:59.013Z,101179.81
2022-07-26T04:10:56.482Z,101183.91
2022-07-26T04:13:53.313Z,101181.19
2022-07-26T04:16:50.391Z,101191.06
2022-07-26T04:19:47.267Z,101195.13
2022-07-26T04:22:45.148Z,101198.41
2022-07-26T04:25:42.073Z,101204.19
2022-07-26T04:28:39.325Z,101210.34
2022-07-26T04:31:36.677Z,101218.91
2022-07-26T04:34:34.317Z,101222.22
2022-07-26T04:37:33.109Z,101228.78
2022-07-26T04:40:33.655Z,101219.38
2022-07-26T04:43:31.070Z,101225.09
2022-07-26T04:46:28.666Z,101226.75
2022-07-26T04:49:26.951Z,101224.72
2022-07-26T04:52:24.413Z,101222.25
2022-07-26T04:55:21.695Z,101216.91
2022-07-26T04:58:19.127Z,101218.13
2022-07-26T05:01:17.446Z,101210.78
2022-07-26T05:04:14.309Z,101209.97
2022-07-26T05:07:11.308Z,101216.53
2022-07-26T05:10:09.025Z,101218.56
2022-07-26T05:13:07.816Z,101218.13
2022-07-26T05:16:05.761Z,101224.28
2022-07-26T05:19:09.133Z,101225.53
2022-07-26T05:22:06.497Z,101230.84
2022-07-26T05:25:04.543Z,101239.03
2022-07-26T05:28:01.440Z,101231.66
2022-07-26T05:30:58.328Z,101227.97
2022-07-26T05:33:55.374Z,101235.34
2022-07-26T05:36:52.118Z,101234.09
2022-07-26T05:39:49.276Z,101239.44
2022-07-26T05:42:48.442Z,101241.06
2022-07-26T05:45:45.277Z,101244.78
2022-07-26T05:48:42.781Z,101241.06
2022-07-26T05:51:40.126Z,101253.78
2022-07-26T05:54:37.438Z,101259.94
2022-07-26T05:57:34.590Z,101252.97
2022-07-26T06:00:31.643Z,101257.44
2022-07-26T06:03:30.171Z,101261.97
2022-07-26T06:06:27.458Z,101260.31
2022-07-26T06:09:24.948Z,101264.84
2022-07-26T06:12:22.250Z,101271.78
2022-07-26T06:15:19.261Z,101267.28
2022-07-26T06:18:16.209Z,101273.84
2022-07-26T06:21:14.224Z,101278.34
2022-07-26T06:24:11.787Z,101273.84
2022-07-26T06:27:09.361Z,101277.13
2022-07-26T06:30:08.031Z,101286.97
2022-07-26T06:33:06.102Z,101287.75
2022-07-26T06:36:03.443Z,101287.78
2022-07-26T06:39:00.166Z,101285.28
2022-07-26T06:41:57.631Z,101295.94
2022-07-26T06:44:54.965Z,101306.59
2022-07-26T06:47:52.276Z,101307.41
2022-07-26T06:50:49.226Z,101309.88
2022-07-26T06:53:47.034Z,101309.06
2022-07-26T06:56:44.667Z,101308.22
2022-07-26T06:59:42.490Z,101318.91
2022-07-26T07:02:39.640Z,101321.78
2022-07-26T07:05:36.330Z,101321.34
2022-07-26T07:08:34.571Z,101324.22
2022-07-26T07:11:32.350Z,101323.41
2022-07-26T07:14:29.563Z,101329.94
2022-07-26T07:17:26.424Z,101332.38
2022-07-26T07:20:23.776Z,101339.81
2022-07-26T07:23:23.448Z,101333.25
2022-07-26T07:26:20.704Z,101335.34
2022-07-26T07:29:20.277Z,101336.53
2022-07-26T07:32:19.956Z,101334.47
2022-07-26T07:35:17.707Z,101337.75
2022-07-26T07:38:16.565Z,101338.97
2022-07-26T07:41:15.379Z,101346.34
2022-07-26T07:44:12.611Z,101337.31
2022-07-26T07:47:09.561Z,101353.72
2022-07-26T07:50:07.483Z,101357.38
2022-07-26T07:53:04.377Z,101363.53
2022-07-26T07:56:01.459Z,101359.00
2022-07-26T07:58:59.967Z,101368.81
2022-07-26T08:01:57.622Z,101375.81
2022-07-26T08:04:55.784Z,101383.59
2022-07-26T08:07:56.954Z,101391.31
2022-07-26T08:10:54.559Z,101384.22
2022-07-26T08:13:53.634Z,101403.84
2022-07-26T08:16:52.293Z,101405.31
2022-07-26T08:19:50.186Z,101408.25
2022-07-26T08:22:47.598Z,101416.78
2022-07-26T08:25:55.631Z,101423.75
2022-07-26T08:28:58.556Z,101425.38
2022-07-26T08:31:57.663Z,101434.09
2022-07-26T08:34:54.659Z,101430.97
2022-07-26T08:38:11.958Z,101430.94
2022-07-26T08:41:09.631Z,101430.56
2022-07-26T08:44:07.602Z,101440.84
2022-07-26T08:47:07.757Z,101446.06
2022-07-26T08:50:04.933Z,101447.97
2022-07-26T08:53:07.072Z,101454.78
2022-07-26T08:56:07.374Z,101465.25
2022-07-26T08:59:06.367Z,101468.22
2022-07-26T09:02:08.532Z,101477.84
2022-07-26T09:05:06.681Z,101481.59
2022-07-26T09:08:26.133Z,101477.44
2022-07-26T09:11:23.435Z,101487.44
2022-07-26T09:14:20.474Z,101486.63
2022-07-26T09:17:19.290Z,101485.72
2022-07-26T09:20:24.491Z,101481.16
2022-07-26T09:23:23.850Z,101490.34
2022-07-26T09:26:21.952Z,101487.56
2022-07-26T09:29:19.682Z,101486.75
2022-07-26T09:32:26.090Z,101490.06
2022-07-26T09:35:50.571Z,101499.56
2022-07-26T09:38:45.406Z,101483.53
2022-07-26T09:41:42.576Z,101501.19
2022-07-26T09:44:40.949Z,101496.72
2022-07-26T09:47:45.651Z,101501.69
2022-07-26T09:50:47.365Z,101497.53
2022-07-26T09:53:46.038Z,101488.13
2022-07-26T09:56:48.760Z,101498.38
2022-07-26T09:59:46.832Z,101502.53
2022-07-26T10:02:44.754Z,101501.72
2022-07-26T10:05:42.192Z,101498.38
2022-07-26T10:08:39.670Z,101502.47
2022-07-26T10:11:43.675Z,101523.84
2022-07-26T10:14:46.354Z,101516.09
2022-07-26T10:17:43.651Z,101510.34
2022-07-26T10:20:42.297Z,101507.75
2022-07-26T10:23:44.194Z,101527.47
2022-07-26T10:26:43.273Z,101530.41
2022-07-26T10:29:41.857Z,101532.50
2022-07-26T10:32:38.818Z,101536.22
2022-07-26T10:35:42.317Z,101527.63
2022-07-26T10:38:39.580Z,101526.38
2022-07-26T10:41:40.870Z,101530.91
2022-07-26T10:44:56.818Z,101545.28
2022-07-26T10:48:14.858Z,101539.53
2022-07-26T10:51:24.993Z,101542.38
2022-07-26T10:54:22.562Z,101555.88
2022-07-26T10:57:20.009Z,101553.69
2022-07-26T11:00:19.989Z,101569.56
2022-07-26T11:03:17.473Z,101572.44
2022-07-26T11:06:19.037Z,101579.25
2022-07-26T11:09:18.994Z,101577.16
2022-07-26T11:12:19.132Z,101593.19
2022-07-26T11:15:17.902Z,101590.84
2022-07-26T11:18:19.882Z,101578.53
2022-07-26T11:21:17.734Z,101585.38
2022-07-26T11:24:14.777Z,101581.41
2022-07-26T11:27:12.813Z,101578.66
2022-07-26T11:30:10.250Z,101584.53
2022-07-26T11:33:07.667Z,101576.00
2022-07-26T11:36:05.100Z,101572.31
2022-07-26T11:39:03.554Z,101570.75
2022-07-26T11:42:10.301Z,101580.13
2022-07-26T11:45:10.042Z,101576.41
2022-07-26T11:48:07.919Z,101583.00
2022-07-26T11:51:20.593Z,101583.44
2022-07-26T11:54:18.345Z,101582.63
2022-07-26T11:57:15.947Z,101571.13
2022-07-26T12:00:13.678Z,101580.94
2022-07-26T12:03:10.638Z,101582.19
2022-07-26T12:06:09.390Z,101591.22
2022-07-26T12:09:06.490Z,101580.53
2022-07-26T12:12:05.867Z,101589.94
2022-07-26T12:15:06.198Z,101596.94
2022-07-26T12:18:05.017Z,101601.38
2022-07-26T12:21:07.434Z,101617.75
2022-07-26T12:24:05.006Z,101620.16
2022-07-26T12:27:14.282Z,101614.75
2022-07-26T12:30:11.540Z,101616.72
2022-07-26T12:33:08.668Z,101627.75
2022-07-26T12:36:28.139Z,101628.66
2022-07-26T12:39:26.845Z,101631.94
2022-07-26T12:42:34.274Z,101623.81
2022-07-26T12:45:33.070Z,101630.41
2022-07-26T12:48:30.708Z,101625.53
2022-07-26T12:51:28.491Z,101625.53
2022-07-26T12:54:29.484Z,101621.50
2022-07-26T12:57:27.432Z,101623.94
2022-07-26T13:00:24.942Z,101627.97
2022-07-26T13:03:21.983Z,101633.31
2022-07-26T13:06:18.764Z,101632.09
2022-07-26T13:09:17.165Z,101625.16
2022-07-26T13:12:15.159Z,101630.53
2022-07-26T13:15:12.404Z,101636.63
2022-07-26T13:18:09.988Z,101641.03
2022-07-26T13:21:06.991Z,101650.97
2022-07-26T13:24:03.697Z,101627.16
2022-07-26T13:27:06.594Z,101650.19
2022-07-26T13:30:03.942Z,101649.03
2022-07-26T13:33:00.696Z,101646.22
2022-07-26T13:35:57.625Z,101638.38
2022-07-26T13:38:54.518Z,101642.94
2022-07-26T13:41:51.933Z,101636.72
2022-07-26T13:44:48.939Z,101647.00
2022-07-26T13:47:45.779Z,101649.47
2022-07-26T13:50:42.968Z,101646.63
2022-07-26T13:53:55.166Z,101656.91
2022-07-26T13:56:53.016Z,101661.03
2022-07-26T13:59:50.228Z,101645.78
2022-07-26T14:02:47.765Z,101653.97
2022-07-26T14:05:44.511Z,101665.47
2022-07-26T14:08:42.039Z,101663.41
2022-07-26T14:11:38.700Z,101663.34
2022-07-26T14:14:36.272Z,101676.03
2022-07-26T14:17:33.652Z,101673.59
2022-07-26T14:20:30.454Z,101677.31
2022-07-26T14:23:27.914Z,101685.09
2022-07-26T14:26:24.939Z,101673.66
2022-07-26T14:29:24.895Z,101671.56
2022-07-26T14:32:22.529Z,101671.53
2022-07-26T14:35:19.787Z,101685.56
2022-07-26T14:38:23.189Z,101687.19
2022-07-26T14:41:22.683Z,101698.69
2022-07-26T14:44:20.076Z,101693.78
2022-07-26T14:47:16.511Z,101688.91
2022-07-26T14:50:14.816Z,101688.47
2022-07-26T14:53:15.678Z,101687.59
2022-07-26T14:56:12.735Z,101696.56
2022-07-26T14:59:09.721Z,101693.69
2022-07-26T15:02:06.897Z,101691.22
2022-07-26T15:05:04.017Z,101699.44
2022-07-26T15:08:05.811Z,101703.13
2022-07-26T15:11:05.572Z,101716.72
2022-07-26T15:14:06.463Z,101714.31
2022-07-26T15:20:01.225Z,101697.38
2022-07-26T15:22:59.427Z,101698.97
2022-07-26T15:25:56.620Z,101702.66
2022-07-26T15:28:53.671Z,101698.53
2022-07-26T15:31:50.871Z,101694.38
2022-07-26T15:34:47.831Z,101713.25
2022-07-26T15:37:45.372Z,101709.09
2022-07-26T15:40:43.008Z,101718.59
2022-07-26T15:43:48.163Z,101710.84
2022-07-26T15:46:48.190Z,101711.31
2022-07-26T15:49:45.789Z,101710.09
2022-07-26T15:52:44.801Z,101709.34
2022-07-26T15:55:41.823Z,101704.84
2022-07-26T15:58:38.925Z,101711.88
2022-07-26T16:01:36.112Z,101704.13
2022-07-26T16:04:32.762Z,101697.97
2022-07-26T16:07:30.083Z,101697.16
2022-07-26T16:10:28.624Z,101700.88
2022-07-26T16:13:25.713Z,101701.25
2022-07-26T16:16:23.326Z,101698.41
2022-07-26T16:19:20.725Z,101690.16
2022-07-26T16:22:17.965Z,101700.69
2022-07-26T16:25:16.085Z,101710.13
2022-07-26T16:28:16.021Z,101706.09
2022-07-26T16:31:13.319Z,101703.69
2022-07-26T16:34:10.683Z,101702.88
2022-07-26T16:37:07.851Z,101700.41
2022-07-26T16:40:08.842Z,101695.50
2022-07-26T16:43:11.819Z,101697.97
2022-07-26T16:46:09.954Z,101694.25
2022-07-26T16:49:10.388Z,101691.00
2022-07-26T16:52:07.973Z,101694.69
2022-07-26T16:55:07.673Z,101687.72
2022-07-26T16:58:05.234Z,101688.13
2022-07-26T17:01:03.348Z,101690.63
2022-07-26T17:04:00.797Z,101688.97
2022-07-26T17:07:23.380Z,101697.19
2022-07-26T17:10:14.800Z,101709.50
2022-07-26T17:13:11.814Z,101698.00
2022-07-26T17:16:08.977Z,101703.72
2022-07-26T17:19:05.966Z,101705.75
2022-07-26T17:22:03.290Z,101709.88
2022-07-26T17:25:01.078Z,101713.56
2022-07-26T17:27:58.173Z,101715.09
2022-07-26T17:30:55.016Z,101712.72
2022-07-26T17:33:52.141Z,101705.69
2022-07-26T17:36:56.047Z,101718.78
2022-07-26T17:39:55.249Z,101717.47
2022-07-26T17:42:54.826Z,101721.59
2022-07-26T17:45:52.081Z,101724.88
2022-07-26T17:48:49.136Z,101722.31
2022-07-26T17:51:46.090Z,101742.03
2022-07-26T17:54:43.222Z,101745.31
2022-07-26T17:57:40.316Z,101753.50
2022-07-26T18:00:38.001Z,101751.03
2022-07-26T18:03:34.838Z,101754.25
2022-07-26T18:06:31.774Z,101763.19
2022-07-26T18:09:29.218Z,101753.22
2022-07-26T18:12:26.345Z,101753.59
2022-07-26T18:15:24.052Z,101758.41
2022-07-26T18:18:21.208Z,101764.59
2022-07-26T18:21:18.182Z,101766.25
2022-07-26T18:24:17.318Z,101766.69
2022-07-26T18:27:15.146Z,101760.09
2022-07-26T18:30:12.345Z,101772.81
2022-07-26T18:33:14.382Z,101765.03
2022-07-26T18:36:11.768Z,101772.09
2022-07-26T18:39:09.534Z,101764.31
2022-07-26T18:42:07.625Z,101780.41
2022-07-26T18:45:05.621Z,101775.13
2022-07-26T18:48:03.237Z,101772.63
2022-07-26T18:51:00.388Z,101767.72
2022-07-26T18:53:58.099Z,101770.22
2022-07-26T18:56:55.502Z,101761.22
2022-07-26T18:59:53.246Z,101760.41
2022-07-26T19:02:52.862Z,101755.91
2022-07-26T19:05:50.293Z,101756.13
2022-07-26T19:08:48.342Z,101770.38
2022-07-26T19:11:49.066Z,101765.44
2022-07-26T19:14:46.829Z,101771.16
2022-07-26T19:17:44.342Z,101787.53
2022-07-26T19:20:40.907Z,101782.94
2022-07-26T19:23:38.135Z,101793.56
2022-07-26T19:26:36.083Z,101803.84
2022-07-26T19:29:33.304Z,101801.78
2022-07-26T19:32:33.513Z,101807.91
2022-07-26T19:35:31.221Z,101793.22
2022-07-26T19:38:27.835Z,101794.53
2022-07-26T19:41:25.189Z,101792.06
2022-07-26T19:44:22.146Z,101805.84
2022-07-26T19:47:19.173Z,101808.19
2022-07-26T19:50:15.820Z,101808.56
2022-07-26T19:53:13.515Z,101811.81
2022-07-26T19:56:11.037Z,101807.56
2022-07-26T19:59:08.419Z,101818.84
2022-07-26T20:02:06.337Z,101834.94
2022-07-26T20:05:04.542Z,101829.25
2022-07-26T20:08:02.413Z,101836.31
2022-07-26T20:11:00.185Z,101830.06
2022-07-26T20:13:56.827Z,101834.94
2022-07-26T20:16:56.995Z,101839.16
2022-07-26T20:19:54.215Z,101839.16
2022-07-26T20:22:50.966Z,101839.91
2022-07-26T20:25:48.403Z,101851.81
2022-07-26T20:28:45.241Z,101847.00
2022-07-26T20:31:42.491Z,101856.91
2022-07-26T20:34:40.462Z,101849.78
2022-07-26T20:37:38.238Z,101851.75
2022-07-26T20:40:35.249Z,101844.66
2022-07-26T20:43:32.245Z,101851.41
2022-07-26T20:46:32.394Z,101853.41
2022-07-26T20:49:30.051Z,101855.19
2022-07-26T20:52:27.002Z,101863.75
2022-07-26T20:55:24.476Z,101860.38
2022-07-26T20:58:22.471Z,101864.47
2022-07-26T21:01:20.379Z,101862.34
2022-07-26T21:04:18.472Z,101864.66
2022-07-26T21:07:16.266Z,101877.00
2022-07-26T21:10:12.977Z,101872.34
2022-07-26T21:13:10.298Z,101870.16
2022-07-26T21:16:09.693Z,101880.88
2022-07-26T21:19:07.604Z,101867.34
2022-07-26T21:22:05.345Z,101871.66
2022-07-26T21:25:02.259Z,101869.53
2022-07-26T21:28:00.605Z,101881.81
2022-07-26T21:30:58.062Z,101893.81
2022-07-26T21:33:55.445Z,101894.59
2022-07-26T21:36:53.107Z,101896.56
2022-07-26T21:39:50.597Z,101911.72
2022-07-26T21:42:48.307Z,101906.59
2022-07-26T21:45:45.263Z,101909.19
2022-07-26T21:48:42.652Z,101912.47
2022-07-26T21:51:40.139Z,101905.09
2022-07-26T21:54:37.537Z,101892.44
2022-07-26T21:57:35.093Z,101878.56
2022-07-26T22:00:32.736Z,101894.22
2022-07-26T22:03:30.814Z,101908.41
2022-07-26T22:06:29.378Z,101885.97
2022-07-26T22:09:26.341Z,101884.09
2022-07-26T22:12:23.337Z,101900.28
2022-07-26T22:15:20.338Z,101886.94
2022-07-26T22:18:17.522Z,101889.88
2022-07-26T22:21:15.269Z,101888.78
2022-07-26T22:24:12.415Z,101882.09
2022-07-26T22:27:09.379Z,101881.47
2022-07-26T22:30:08.226Z,101882.78
2022-07-26T22:33:07.878Z,101901.09
2022-07-26T22:36:05.659Z,101889.31
2022-07-26T22:39:04.251Z,101910.97
2022-07-26T22:42:14.809Z,101892.97
2022-07-26T22:45:13.659Z,101889.78
2022-07-26T22:48:11.257Z,101910.91
2022-07-26T22:51:08.580Z,101905.59
2022-07-26T22:54:06.290Z,101903.09
2022-07-26T22:57:03.627Z,101903.19
2022-07-26T23:00:01.683Z,101893.81
2022-07-26T23:02:59.291Z,101888.31
2022-07-26T23:05:56.097Z,101893.03
2022-07-26T23:08:54.569Z,101889.03
2022-07-26T23:11:52.562Z,101889.09
2022-07-26T23:14:50.442Z,101888.13
2022-07-26T23:17:47.102Z,101889.22
2022-07-26T23:20:44.198Z,101874.00
2022-07-26T23:23:41.426Z,101892.97
2022-07-26T23:26:38.391Z,101908.59
2022-07-26T23:29:35.585Z,101899.72
2022-07-26T23:32:33.099Z,101907.53
2022-07-26T23:35:30.257Z,101900.16
2022-07-26T23:38:27.254Z,101898.09
2022-07-26T23:41:24.336Z,101904.31
2022-07-26T23:44:21.441Z,101901.22
2022-07-26T23:47:19.534Z,101888.63
2022-07-26T23:50:18.419Z,101891.81
2022-07-26T23:53:15.179Z,101898.81
2022-07-26T23:56:12.532Z,101893.94
2022-07-26T23:59:09.932Z,101888.66
